createdAt,value
2023-05-02T00:02:00.704Z,96450.03
2023-05-02T00:04:27.785Z,96447.03
2023-05-02T00:06:54.703Z,96458.88
2023-05-02T00:09:21.682Z,96465.56
2023-05-02T00:11:48.457Z,96462.66
2023-05-02T00:14:15.130Z,96444.66
2023-05-02T00:16:41.875Z,96464.22
2023-05-02T00:19:08.510Z,96471.81
2023-05-02T00:21:35.249Z,96453.72
2023-05-02T00:24:01.944Z,96456.16
2023-05-02T00:26:29.047Z,96454.72
2023-05-02T00:28:55.686Z,96458.88
2023-05-02T00:31:22.335Z,96455.94
2023-05-02T00:33:49.092Z,96459.31
2023-05-02T00:36:16.883Z,96468.03
2023-05-02T00:38:43.651Z,96465.34
2023-05-02T00:41:10.852Z,96463.78
2023-05-02T00:43:39.854Z,96468.69
2023-05-02T00:46:08.038Z,96471.81
2023-05-02T00:48:35.474Z,96465.78
2023-05-02T00:51:09.151Z,96487.13
2023-05-02T00:53:36.120Z,96482.75
2023-05-02T00:56:03.534Z,96478.28
2023-05-02T00:58:30.823Z,96488.03
2023-05-02T01:01:31.519Z,96496.28
2023-05-02T01:04:02.654Z,96493.03
2023-05-02T01:06:41.812Z,96504.47
2023-05-02T01:09:32.705Z,96513.13
2023-05-02T01:12:05.346Z,96512.00
2023-05-02T01:14:41.172Z,96493.72
2023-05-02T01:17:11.640Z,96500.41
2023-05-02T01:19:57.382Z,96500.28
2023-05-02T01:22:28.052Z,96485.22
2023-05-02T01:24:54.665Z,96476.50
2023-05-02T01:27:52.124Z,96482.63
2023-05-02T01:30:21.531Z,96482.31
2023-05-02T01:32:51.020Z,96471.03
2023-05-02T01:35:20.193Z,96471.13
2023-05-02T01:37:49.023Z,96478.59
2023-05-02T01:40:22.593Z,96474.97
2023-05-02T01:42:52.255Z,96482.31
2023-05-02T01:45:21.264Z,96493.25
2023-05-02T01:47:49.256Z,96485.91
2023-05-02T01:50:23.333Z,96495.19
2023-05-02T01:52:53.244Z,96502.84
2023-05-02T01:55:20.799Z,96498.59
2023-05-02T01:57:50.788Z,96492.72
2023-05-02T02:00:19.685Z,96509.13
2023-05-02T02:02:49.748Z,96514.34
2023-05-02T02:05:19.262Z,96517.16
2023-05-02T02:07:46.407Z,96523.22
2023-05-02T02:10:13.361Z,96539.28
2023-05-02T02:12:42.884Z,96546.06
2023-05-02T02:15:18.272Z,96542.66
2023-05-02T02:17:59.158Z,96558.81
2023-05-02T02:20:28.685Z,96576.56
2023-05-02T02:22:57.849Z,96571.44
2023-05-02T02:25:26.986Z,96575.75
2023-05-02T02:27:54.666Z,96583.72
2023-05-02T02:30:21.396Z,96585.41
2023-05-02T02:32:48.156Z,96579.28
2023-05-02T02:35:15.380Z,96592.22
2023-05-02T02:37:59.422Z,96609.63
2023-05-02T02:40:31.687Z,96611.84
2023-05-02T02:43:01.623Z,96617.47
2023-05-02T02:45:43.941Z,96627.84
2023-05-02T02:48:35.785Z,96651.97
2023-05-02T02:51:02.364Z,96650.09
2023-05-02T02:53:51.130Z,96665.22
2023-05-02T02:56:26.672Z,96685.75
2023-05-02T02:59:00.541Z,96690.38
2023-05-02T03:01:30.876Z,96699.88
2023-05-02T03:03:58.155Z,96719.94
2023-05-02T03:06:27.402Z,96723.75
2023-05-02T03:08:54.138Z,96736.88
2023-05-02T03:11:20.733Z,96753.22
2023-05-02T03:13:47.759Z,96778.19
2023-05-02T03:16:27.349Z,96787.94
2023-05-02T03:18:54.091Z,96791.03
2023-05-02T03:21:20.794Z,96834.13
2023-05-02T03:23:47.429Z,96850.06
2023-05-02T03:26:14.560Z,96865.03
2023-05-02T03:28:41.214Z,96867.06
2023-05-02T03:31:09.903Z,96883.03
2023-05-02T03:33:36.651Z,96901.97
2023-05-02T03:36:03.481Z,96906.97
2023-05-02T03:38:30.817Z,96925.41
2023-05-02T03:40:58.464Z,96947.03
2023-05-02T03:43:25.284Z,96970.88
2023-05-02T03:45:51.930Z,96980.97
2023-05-02T03:48:18.760Z,96983.13
2023-05-02T03:50:45.469Z,96995.91
2023-05-02T03:53:12.126Z,97011.66
2023-05-02T03:55:42.540Z,97017.81
2023-05-02T03:58:10.815Z,97028.06
2023-05-02T04:00:38.602Z,97050.13
2023-05-02T04:03:05.690Z,97069.09
2023-05-02T04:05:32.565Z,97086.25
2023-05-02T04:07:59.164Z,97098.22
2023-05-02T04:10:25.831Z,97123.16
2023-05-02T04:12:52.457Z,97129.75
2023-05-02T04:15:19.185Z,97141.75
2023-05-02T04:17:46.790Z,97148.84
2023-05-02T04:20:13.823Z,97171.69
2023-05-02T04:22:41.195Z,97183.66
2023-05-02T04:25:08.269Z,97194.03
2023-05-02T04:27:35.187Z,97191.88
2023-05-02T04:30:02.043Z,97207.78
2023-05-02T04:32:29.249Z,97223.81
2023-05-02T04:34:55.980Z,97232.16
2023-05-02T04:37:22.744Z,97237.44
2023-05-02T04:39:49.423Z,97252.84
2023-05-02T04:42:16.132Z,97260.22
2023-05-02T04:44:42.736Z,97252.38
2023-05-02T04:47:09.415Z,97260.88
2023-05-02T04:49:36.587Z,97281.84
2023-05-02T04:52:03.218Z,97290.31
2023-05-02T04:54:30.206Z,97284.88
2023-05-02T04:56:57.302Z,97297.94
2023-05-02T04:59:23.885Z,97313.22
2023-05-02T05:01:50.864Z,97329.28
2023-05-02T05:04:20.087Z,97330.00
2023-05-02T05:06:48.413Z,97362.09
2023-05-02T05:09:15.909Z,97375.50
2023-05-02T05:11:46.323Z,97405.28
2023-05-02T05:14:13.094Z,97408.22
2023-05-02T05:16:40.271Z,97422.88
2023-05-02T05:19:07.037Z,97429.66
2023-05-02T05:21:34.150Z,97447.34
2023-05-02T05:24:00.895Z,97448.97
2023-05-02T05:26:27.856Z,97432.22
2023-05-02T05:28:54.439Z,97455.56
2023-05-02T05:31:21.178Z,97463.81
2023-05-02T05:33:47.871Z,97485.28
2023-05-02T05:36:15.117Z,97522.16
2023-05-02T05:38:42.004Z,97550.41
2023-05-02T05:41:09.056Z,97551.94
2023-05-02T05:43:37.751Z,97591.94
2023-05-02T05:46:04.823Z,97627.28
2023-05-02T05:48:31.557Z,97631.78
2023-05-02T05:50:58.242Z,97655.44
2023-05-02T05:53:24.944Z,97687.25
2023-05-02T05:55:51.561Z,97712.88
2023-05-02T05:58:18.345Z,97720.38
2023-05-02T06:00:44.961Z,97742.75
2023-05-02T06:03:12.366Z,97750.38
2023-05-02T06:05:39.029Z,97712.16
2023-05-02T06:08:05.658Z,97744.97
2023-05-02T06:10:32.635Z,97776.78
2023-05-02T06:12:59.452Z,97798.03
2023-05-02T06:15:26.210Z,97805.13
2023-05-02T06:17:52.948Z,97841.06
2023-05-02T06:20:19.612Z,97874.53
2023-05-02T06:22:46.256Z,97925.31
2023-05-02T06:25:13.040Z,97972.56
2023-05-02T06:27:39.768Z,97998.00
2023-05-02T06:30:07.192Z,97984.06
2023-05-02T06:32:33.928Z,97995.56
2023-05-02T06:35:01.344Z,98040.25
2023-05-02T06:37:27.969Z,98097.25
2023-05-02T06:39:54.609Z,98097.66
2023-05-02T06:42:21.244Z,98093.66
2023-05-02T06:44:47.917Z,98109.97
2023-05-02T06:47:14.982Z,98115.72
2023-05-02T06:49:41.921Z,98125.66
2023-05-02T06:52:08.691Z,98148.03
2023-05-02T06:54:35.661Z,98220.44
2023-05-02T06:57:02.713Z,98228.59
2023-05-02T06:59:29.692Z,98285.06
2023-05-02T07:01:57.362Z,98308.78
2023-05-02T07:04:24.016Z,98376.50
2023-05-02T07:06:51.153Z,98377.03
2023-05-02T07:09:17.857Z,98384.41
2023-05-02T07:11:44.452Z,98373.81
2023-05-02T07:14:11.397Z,98381.63
2023-05-02T07:16:38.118Z,98422.97
2023-05-02T07:19:07.086Z,98440.41
2023-05-02T07:21:33.784Z,98425.88
2023-05-02T07:24:01.296Z,98462.28
2023-05-02T07:26:28.528Z,98476.91
2023-05-02T07:28:55.151Z,98477.53
2023-05-02T07:31:22.077Z,98472.88
2023-05-02T07:33:48.747Z,98519.16
2023-05-02T07:36:15.804Z,98521.44
2023-05-02T07:38:42.391Z,98529.00
2023-05-02T07:41:09.318Z,98517.25
2023-05-02T07:43:36.090Z,98567.72
2023-05-02T07:46:06.816Z,98594.16
2023-05-02T07:48:34.135Z,98620.91
2023-05-02T07:51:08.112Z,98643.78
2023-05-02T07:53:34.782Z,98672.63
2023-05-02T07:56:03.394Z,98674.13
2023-05-02T07:58:30.118Z,98678.81
2023-05-02T08:00:57.737Z,98666.28
2023-05-02T08:03:25.705Z,98685.72
2023-05-02T08:05:52.513Z,98694.50
2023-05-02T08:08:19.252Z,98713.28
2023-05-02T08:10:46.294Z,98712.91
2023-05-02T08:13:13.295Z,98730.56
2023-05-02T08:15:39.951Z,98742.66
2023-05-02T08:18:07.474Z,98717.19
2023-05-02T08:20:34.183Z,98756.75
2023-05-02T08:23:00.873Z,98755.25
2023-05-02T08:25:27.620Z,98773.84
2023-05-02T08:27:54.279Z,98775.44
2023-05-02T08:30:20.897Z,98784.03
2023-05-02T08:32:47.618Z,98779.44
2023-05-02T08:35:14.419Z,98801.66
2023-05-02T08:37:41.252Z,98788.47
2023-05-02T08:40:12.272Z,98781.28
2023-05-02T08:42:42.769Z,98816.38
2023-05-02T08:45:14.054Z,98840.81
2023-05-02T08:47:42.576Z,98846.25
2023-05-02T08:50:10.915Z,98838.84
2023-05-02T08:52:38.583Z,98846.25
2023-05-02T08:55:07.536Z,98837.13
2023-05-02T08:57:34.405Z,98838.38
2023-05-02T09:00:01.355Z,98866.69
2023-05-02T09:02:31.329Z,98877.19
2023-05-02T09:05:06.570Z,98903.47
2023-05-02T09:07:47.806Z,98902.44
2023-05-02T09:10:15.948Z,98901.88
2023-05-02T09:12:43.147Z,98913.69
2023-05-02T09:15:14.720Z,98912.69
2023-05-02T09:17:46.331Z,98924.59
2023-05-02T09:20:14.738Z,98946.50
2023-05-02T09:22:53.452Z,98938.88
2023-05-02T09:25:21.275Z,98934.09
2023-05-02T09:27:55.888Z,98931.28
2023-05-02T09:30:23.760Z,98945.09
2023-05-02T09:32:51.990Z,98940.69
2023-05-02T09:35:23.834Z,98945.50
2023-05-02T09:37:54.894Z,98945.09
2023-05-02T09:40:22.109Z,98950.34
2023-05-02T09:42:49.033Z,98967.13
2023-05-02T09:45:23.940Z,98966.09
2023-05-02T09:47:51.556Z,98970.50
2023-05-02T09:50:38.730Z,98961.69
2023-05-02T09:53:07.340Z,98965.13
2023-05-02T09:55:34.470Z,98975.47
2023-05-02T09:58:01.544Z,98979.28
2023-05-02T10:00:44.861Z,98980.28
2023-05-02T10:03:17.943Z,98987.09
2023-05-02T10:05:47.904Z,98985.97
2023-05-02T10:08:18.655Z,98989.94
2023-05-02T10:11:07.799Z,98990.19
2023-05-02T10:13:37.715Z,99008.34
2023-05-02T10:16:06.912Z,99004.34
2023-05-02T10:19:12.863Z,99009.16
2023-05-02T10:21:43.185Z,99018.75
2023-05-02T10:24:10.429Z,99021.38
2023-05-02T10:26:37.454Z,99014.88
2023-05-02T10:29:04.340Z,99011.41
2023-05-02T10:31:35.150Z,99005.69
2023-05-02T10:34:03.381Z,99003.66
2023-05-02T10:36:33.506Z,99015.88
2023-05-02T10:39:01.452Z,99019.97
2023-05-02T10:41:31.509Z,99014.16
2023-05-02T10:43:58.838Z,99015.22
2023-05-02T10:46:41.841Z,99019.72
2023-05-02T10:49:13.609Z,99018.09
2023-05-02T10:51:42.093Z,99029.25
2023-05-02T10:54:18.245Z,99047.44
2023-05-02T10:57:09.731Z,99038.13
2023-05-02T10:59:40.854Z,99039.44
2023-05-02T11:02:31.260Z,99030.56
2023-05-02T11:05:04.573Z,99017.06
2023-05-02T11:07:33.775Z,99022.78
2023-05-02T11:10:18.463Z,99026.13
2023-05-02T11:12:47.914Z,99025.84
2023-05-02T11:15:15.835Z,99032.09
2023-05-02T11:18:01.904Z,99032.91
2023-05-02T11:20:29.338Z,99029.66
2023-05-02T11:22:58.950Z,99034.72
2023-05-02T11:25:33.835Z,99032.84
2023-05-02T11:28:00.904Z,99035.97
2023-05-02T11:30:45.399Z,99047.50
2023-05-02T11:33:15.889Z,99042.59
2023-05-02T11:35:44.414Z,99050.00
2023-05-02T11:38:13.721Z,99048.28
2023-05-02T11:40:40.755Z,99054.53
2023-05-02T11:43:16.641Z,99047.91
2023-05-02T11:45:44.167Z,99052.94
2023-05-02T11:48:12.966Z,99053.53
2023-05-02T11:50:48.754Z,99054.03
2023-05-02T11:53:22.633Z,99061.31
2023-05-02T11:55:52.087Z,99065.25
2023-05-02T11:58:21.560Z,99080.00
2023-05-02T12:00:49.295Z,99063.66
2023-05-02T12:03:22.872Z,99066.91
2023-05-02T12:05:50.510Z,99056.78
2023-05-02T12:08:27.612Z,99068.50
2023-05-02T12:10:56.836Z,99066.44
2023-05-02T12:13:25.606Z,99054.81
2023-05-02T12:15:54.164Z,99059.41
2023-05-02T12:18:27.172Z,99060.72
2023-05-02T12:20:56.063Z,99070.00
2023-05-02T12:23:26.488Z,99083.09
2023-05-02T12:25:53.324Z,99087.22
2023-05-02T12:28:20.901Z,99091.72
2023-05-02T12:30:49.701Z,99086.47
2023-05-02T12:33:18.327Z,99096.97
2023-05-02T12:35:49.244Z,99094.28
2023-05-02T12:38:19.008Z,99103.84
2023-05-02T12:40:54.557Z,99097.16
2023-05-02T12:43:22.148Z,99109.28
2023-05-02T12:45:50.011Z,99119.66
2023-05-02T12:48:23.009Z,99140.75
2023-05-02T12:50:50.713Z,99134.78
2023-05-02T12:53:17.333Z,99141.06
2023-05-02T12:55:44.430Z,99141.28
2023-05-02T12:58:14.959Z,99113.63
2023-05-02T13:00:44.217Z,99132.34
2023-05-02T13:03:12.483Z,99135.19
2023-05-02T13:05:39.409Z,99130.25
2023-05-02T13:08:06.623Z,99149.28
2023-05-02T13:10:33.417Z,99130.91
2023-05-02T13:13:00.407Z,99146.22
2023-05-02T13:15:27.314Z,99131.34
2023-05-02T13:17:54.098Z,99140.63
2023-05-02T13:20:20.964Z,99145.41
2023-05-02T13:22:48.827Z,99143.94
2023-05-02T13:25:16.153Z,99141.81
2023-05-02T13:27:42.885Z,99145.94
2023-05-02T13:30:10.305Z,99146.94
2023-05-02T13:32:37.511Z,99149.22
2023-05-02T13:35:05.611Z,99161.28
2023-05-02T13:37:32.535Z,99167.53
2023-05-02T13:39:59.290Z,99173.91
2023-05-02T13:42:26.056Z,99169.44
2023-05-02T13:44:52.695Z,99176.78
2023-05-02T13:47:20.403Z,99176.47
2023-05-02T13:49:47.056Z,99183.50
2023-05-02T13:52:14.863Z,99181.09
2023-05-02T13:54:41.521Z,99181.25
2023-05-02T13:57:08.158Z,99187.78
2023-05-02T13:59:34.828Z,99201.16
2023-05-02T14:02:01.622Z,99195.25
2023-05-02T14:04:28.558Z,99192.00
2023-05-02T14:06:55.316Z,99197.28
2023-05-02T14:09:22.209Z,99209.88
2023-05-02T14:11:49.185Z,99210.44
2023-05-02T14:14:16.191Z,99220.66
2023-05-02T14:16:42.799Z,99207.94
2023-05-02T14:19:09.437Z,99207.47
2023-05-02T14:21:38.539Z,99206.34
2023-05-02T14:24:06.549Z,99214.75
2023-05-02T14:26:33.548Z,99211.13
2023-05-02T14:29:01.901Z,99217.78
2023-05-02T14:31:29.569Z,99247.53
2023-05-02T14:33:57.607Z,99257.97
2023-05-02T14:36:24.186Z,99265.44
2023-05-02T14:38:50.958Z,99259.31
2023-05-02T14:41:18.500Z,99250.22
2023-05-02T14:43:46.229Z,99258.50
2023-05-02T14:46:12.856Z,99253.00
2023-05-02T14:48:40.468Z,99250.06
2023-05-02T14:51:07.329Z,99260.50
2023-05-02T14:53:35.062Z,99261.78
2023-05-02T14:56:01.731Z,99265.00
2023-05-02T14:58:28.597Z,99268.38
2023-05-02T15:00:55.317Z,99262.34
2023-05-02T15:03:22.155Z,99266.53
2023-05-02T15:05:48.933Z,99270.94
2023-05-02T15:08:17.025Z,99268.19
2023-05-02T15:10:43.612Z,99281.91
2023-05-02T15:13:10.708Z,99281.22
2023-05-02T15:15:37.501Z,99282.75
2023-05-02T15:18:04.615Z,99287.81
2023-05-02T15:20:32.484Z,99280.31
2023-05-02T15:23:03.291Z,99286.72
2023-05-02T15:25:30.755Z,99292.09
2023-05-02T15:27:57.398Z,99297.53
2023-05-02T15:30:24.340Z,99300.22
2023-05-02T15:32:51.067Z,99293.50
2023-05-02T15:35:18.839Z,99307.47
2023-05-02T15:37:45.734Z,99296.53
2023-05-02T15:40:12.783Z,99298.56
2023-05-02T15:42:40.112Z,99304.38
2023-05-02T15:45:07.266Z,99302.53
2023-05-02T15:47:33.969Z,99300.66
2023-05-02T15:50:01.169Z,99297.28
2023-05-02T15:52:27.994Z,99301.41
2023-05-02T15:54:56.117Z,99306.28
2023-05-02T15:57:24.294Z,99301.66
2023-05-02T15:59:51.975Z,99304.72
2023-05-02T16:02:19.209Z,99294.59
2023-05-02T16:04:46.540Z,99294.88
2023-05-02T16:07:13.281Z,99293.81
2023-05-02T16:09:40.180Z,99301.13
2023-05-02T16:12:08.738Z,99314.38
2023-05-02T16:14:35.598Z,99300.19
2023-05-02T16:17:03.321Z,99311.53
2023-05-02T16:19:30.703Z,99300.53
2023-05-02T16:21:57.398Z,99305.78
2023-05-02T16:24:24.262Z,99300.75
2023-05-02T16:26:50.944Z,99309.06
2023-05-02T16:29:18.582Z,99310.75
2023-05-02T16:31:45.224Z,99314.13
2023-05-02T16:34:11.994Z,99312.53
2023-05-02T16:36:38.637Z,99329.38
2023-05-02T16:39:05.320Z,99333.25
2023-05-02T16:41:32.017Z,99334.09
2023-05-02T16:43:59.758Z,99340.63
2023-05-02T16:46:26.866Z,99338.13
2023-05-02T16:48:53.618Z,99337.91
2023-05-02T16:51:20.241Z,99335.91
2023-05-02T16:53:46.969Z,99342.25
2023-05-02T16:56:13.575Z,99346.56
2023-05-02T16:58:41.228Z,99344.22
2023-05-02T17:01:08.521Z,99354.81
2023-05-02T17:03:35.650Z,99354.75
2023-05-02T17:06:02.957Z,99361.25
2023-05-02T17:08:30.692Z,99360.63
2023-05-02T17:10:57.523Z,99368.28
2023-05-02T17:13:24.243Z,99365.34
2023-05-02T17:15:53.898Z,99376.91
2023-05-02T17:18:20.719Z,99372.00
2023-05-02T17:20:47.432Z,99369.66
2023-05-02T17:23:14.713Z,99376.50
2023-05-02T17:25:41.788Z,99375.44
2023-05-02T17:28:08.564Z,99371.38
2023-05-02T17:30:35.644Z,99374.88
2023-05-02T17:33:02.801Z,99373.50
2023-05-02T17:35:29.682Z,99378.41
2023-05-02T17:37:56.381Z,99385.16
2023-05-02T17:40:23.225Z,99381.72
2023-05-02T17:42:49.847Z,99392.03
2023-05-02T17:45:16.810Z,99386.25
2023-05-02T17:47:44.734Z,99394.44
2023-05-02T17:50:11.727Z,99395.16
2023-05-02T17:52:38.940Z,99393.63
2023-05-02T17:55:06.777Z,99404.78
2023-05-02T17:57:33.430Z,99404.91
2023-05-02T18:00:00.490Z,99407.63
2023-05-02T18:02:27.672Z,99411.94
2023-05-02T18:04:54.884Z,99411.81
2023-05-02T18:07:24.613Z,99421.75
2023-05-02T18:09:54.033Z,99416.53
2023-05-02T18:12:21.788Z,99423.06
2023-05-02T18:14:49.272Z,99425.16
2023-05-02T18:17:20.291Z,99428.09
2023-05-02T18:19:49.331Z,99433.22
2023-05-02T18:22:19.857Z,99439.88
2023-05-02T18:24:48.038Z,99436.16
2023-05-02T18:27:14.950Z,99442.19
2023-05-02T18:29:41.605Z,99447.56
2023-05-02T18:32:08.808Z,99444.50
2023-05-02T18:34:37.866Z,99451.25
2023-05-02T18:37:06.757Z,99458.03
2023-05-02T18:39:34.267Z,99452.91
2023-05-02T18:42:03.139Z,99459.44
2023-05-02T18:44:31.094Z,99457.81
2023-05-02T18:46:57.995Z,99465.78
2023-05-02T18:49:26.215Z,99480.56
2023-05-02T18:51:57.138Z,99474.88
2023-05-02T18:54:24.392Z,99484.97
2023-05-02T18:56:51.026Z,99473.56
2023-05-02T18:59:19.131Z,99477.41
2023-05-02T19:01:47.547Z,99481.06
2023-05-02T19:04:14.696Z,99484.69
2023-05-02T19:06:42.013Z,99486.09
2023-05-02T19:09:09.866Z,99485.03
2023-05-02T19:11:36.752Z,99488.06
2023-05-02T19:14:04.059Z,99491.09
2023-05-02T19:16:31.451Z,99491.31
2023-05-02T19:18:58.297Z,99488.47
2023-05-02T19:21:24.976Z,99486.97
2023-05-02T19:23:52.753Z,99489.31
2023-05-02T19:26:19.616Z,99490.22
2023-05-02T19:28:46.365Z,99496.31
2023-05-02T19:31:16.138Z,99496.84
2023-05-02T19:33:52.363Z,99494.66
2023-05-02T19:36:20.244Z,99486.75
2023-05-02T19:38:51.989Z,99498.84
2023-05-02T19:41:18.754Z,99499.84
2023-05-02T19:43:45.731Z,99504.44
2023-05-02T19:46:14.346Z,99500.88
2023-05-02T19:48:41.065Z,99501.91
2023-05-02T19:51:07.992Z,99493.50
2023-05-02T19:53:37.415Z,99502.91
2023-05-02T19:56:05.186Z,99494.13
2023-05-02T19:58:31.989Z,99486.09
2023-05-02T20:00:58.764Z,99481.53
2023-05-02T20:03:26.016Z,99488.53
2023-05-02T20:05:54.196Z,99475.63
2023-05-02T20:08:23.368Z,99485.81
2023-05-02T20:10:50.197Z,99482.31
2023-05-02T20:13:16.893Z,99484.50
2023-05-02T20:15:43.830Z,99482.31
2023-05-02T20:18:10.474Z,99481.31
2023-05-02T20:20:37.138Z,99475.41
2023-05-02T20:23:03.720Z,99479.94
2023-05-02T20:25:30.466Z,99479.97
2023-05-02T20:27:57.254Z,99479.16
2023-05-02T20:30:25.293Z,99477.00
2023-05-02T20:32:52.304Z,99462.47
2023-05-02T20:35:19.324Z,99458.66
2023-05-02T20:37:47.917Z,99459.50
2023-05-02T20:40:14.686Z,99444.09
2023-05-02T20:42:42.395Z,99433.88
2023-05-02T20:45:13.144Z,99435.00
2023-05-02T20:47:39.843Z,99431.97
2023-05-02T20:50:09.367Z,99422.00
2023-05-02T20:52:37.788Z,99426.34
2023-05-02T20:55:04.869Z,99413.88
2023-05-02T20:57:31.516Z,99397.19
2023-05-02T21:00:01.092Z,99399.44
2023-05-02T21:02:28.211Z,99400.91
2023-05-02T21:04:55.749Z,99382.09
2023-05-02T21:07:22.407Z,99398.75
2023-05-02T21:09:49.764Z,99381.34
2023-05-02T21:12:16.457Z,99342.16
2023-05-02T21:14:44.137Z,99348.69
2023-05-02T21:17:10.823Z,99339.53
2023-05-02T21:19:38.933Z,99315.38
2023-05-02T21:22:05.556Z,99318.09
2023-05-02T21:24:33.360Z,99321.13
2023-05-02T21:27:00.034Z,99292.72
2023-05-02T21:29:26.673Z,99295.78
2023-05-02T21:31:54.810Z,99280.94
2023-05-02T21:34:21.708Z,99269.78
2023-05-02T21:36:48.308Z,99265.88
2023-05-02T21:39:16.354Z,99261.09
2023-05-02T21:41:43.042Z,99246.22
2023-05-02T21:44:11.361Z,99232.28
2023-05-02T21:46:38.017Z,99248.69
2023-05-02T21:49:04.629Z,99211.63
2023-05-02T21:51:32.606Z,99197.59
2023-05-02T21:54:00.142Z,99189.59
2023-05-02T21:56:27.960Z,99198.72
2023-05-02T21:58:54.571Z,99203.34
2023-05-02T22:01:21.296Z,99165.84
2023-05-02T22:03:48.361Z,99151.50
2023-05-02T22:06:15.193Z,99171.72
2023-05-02T22:08:41.840Z,99153.47
2023-05-02T22:11:10.269Z,99143.88
2023-05-02T22:13:37.265Z,99145.31
2023-05-02T22:16:05.277Z,99117.16
2023-05-02T22:18:31.901Z,99078.69
2023-05-02T22:20:58.661Z,99087.25
2023-05-02T22:23:26.527Z,99110.38
2023-05-02T22:25:53.166Z,99111.13
2023-05-02T22:28:19.826Z,99111.22
2023-05-02T22:30:46.422Z,99125.63
2023-05-02T22:33:14.147Z,99109.50
2023-05-02T22:35:41.099Z,99065.13
2023-05-02T22:38:10.990Z,99068.97
2023-05-02T22:40:38.761Z,99102.75
2023-05-02T22:43:05.389Z,99099.84
2023-05-02T22:45:33.143Z,99091.97
2023-05-02T22:48:01.039Z,99121.06
2023-05-02T22:50:28.358Z,99124.56
2023-05-02T22:52:58.721Z,99120.34
2023-05-02T22:55:26.025Z,99129.84
2023-05-02T22:57:52.752Z,99158.47
2023-05-02T23:00:19.523Z,99198.78
2023-05-02T23:02:46.633Z,99213.94
2023-05-02T23:05:14.342Z,99274.16
2023-05-02T23:07:41.050Z,99321.97
2023-05-02T23:10:08.580Z,99347.31
2023-05-02T23:12:35.174Z,99401.56
2023-05-02T23:15:01.890Z,99433.75
2023-05-02T23:17:28.663Z,99431.16
2023-05-02T23:19:55.288Z,99443.81
2023-05-02T23:22:21.909Z,99458.06
2023-05-02T23:24:49.681Z,99465.63
2023-05-02T23:27:16.380Z,99480.69
2023-05-02T23:29:43.011Z,99498.09
2023-05-02T23:32:09.753Z,99487.69
2023-05-02T23:34:36.749Z,99497.59
2023-05-02T23:37:06.234Z,99502.44
2023-05-02T23:39:33.476Z,99505.94
2023-05-02T23:42:01.845Z,99498.47
2023-05-02T23:44:28.434Z,99521.78
2023-05-02T23:46:55.033Z,99505.69
2023-05-02T23:49:21.871Z,99527.47
2023-05-02T23:51:48.465Z,99526.34
2023-05-02T23:54:16.992Z,99528.22
2023-05-02T23:56:43.874Z,99518.34
2023-05-02T23:59:11.323Z,99539.28
